John Oxley 2 — 7572QC — position and weather

sailwx.info

Track history (hours):
 
Tides and Currents Weather Stations Pressure Air Temp Water Temp Dewpoint Dewpoint Depression Visibility Wind Speed Wind Dir Waves Ship Positions

John Oxley 2

Last reported at 2017-Dec-16 09:16 UTC. Time now 2017-Dec-16 11:22 UTC.
Position S 27°24' E 153°09'.

Length 79 m.

MMSI: 503774000.

Date/timePositionNaut miles runAvg speedWind from/ knotsBaromVisibWave heightAir tempDewpointWater temp
2017-Dec-16 09:16S 27°24' E 153°09'2 7.6
2017-Dec-16 09:00S 27°22' E 153°10'5 7.3
2017-Dec-16 08:20S 27°18' E 153°13'2 7.2
2017-Dec-16 08:00S 27°16' E 153°13'4 7.3
2017-Dec-16 07:30S 27°12' E 153°13'4 7.6
2017-Dec-16 06:57S 27°09' E 153°16'2 0.3
2017-Dec-16 00:11S 27°07' E 153°17'2 9.1
2017-Dec-16 00:00S 27°08' E 153°16'4 8.7
2017-Dec-15 23:30S 27°12' E 153°13'4 8.2
2017-Dec-15 23:00S 27°16' E 153°12'4 7.9
2017-Dec-15 22:30S 27°20' E 153°12'5 0.4
2017-Dec-15 07:52S 27°24' E 153°09'1 1.8
2017-Dec-15 07:11S 27°23' E 153°09'6 6.9
2017-Dec-15 06:18S 27°18' E 153°13'2 7.1
2017-Dec-15 05:59S 27°15' E 153°13'3 7.1
2017-Dec-15 05:30S 27°12' E 153°13'4 0.2
2017-Dec-14 05:23S 27°16' E 153°13'8 1.0
2017-Dec-13 21:51S 27°09' E 153°16'4 8.3
2017-Dec-13 21:19S 27°12' E 153°13'3 8.4
2017-Dec-13 20:59S 27°15' E 153°12'8 7.8
2017-Dec-13 19:55S 27°23' E 153°10'1 0.1
2017-Dec-12 17:27S 27°24' E 153°09'7 7.1
2017-Dec-12 16:27S 27°18' E 153°13'3 6.8
2017-Dec-12 16:00S 27°15' E 153°15'3 6.9
2017-Dec-12 15:30S 27°13' E 153°17'7 6.2
2017-Dec-12 14:18S 27°05' E 153°18'3 0.5
2017-Dec-12 09:02S 27°03' E 153°17'0 2.7
2017-Dec-12 09:00S 27°03' E 153°16'4 7.6
2017-Dec-12 08:31S 27°07' E 153°17'4 8.7
2017-Dec-12 08:00S 27°10' E 153°14'4 7.8
2017-Dec-12 07:30S 27°14' E 153°13'4 8.3
2017-Dec-12 06:59S 27°18' E 153°12'1 0.1
2017-Dec-11 20:23S 27°18' E 153°12'2 6.5
2017-Dec-11 20:00S 27°15' E 153°13'3 6.5
2017-Dec-11 19:30S 27°12' E 153°13'3 6.4
2017-Dec-11 19:00S 27°10' E 153°15'3 6.8
2017-Dec-11 18:30S 27°07' E 153°17'4 0.8
2017-Dec-11 13:49S 27°03' E 153°17'2 6.0
2017-Dec-11 13:30S 27°05' E 153°18'4 8.2
2017-Dec-11 13:00S 27°09' E 153°20'4 8.6
2017-Dec-11 12:30S 27°12' E 153°18'4 8.7
2017-Dec-11 12:00S 27°16' E 153°15'4 8.6
2017-Dec-11 11:30S 27°20' E 153°12'5 9.3
2017-Dec-11 11:00S 27°24' E 153°09'1 0.0
2017-Dec-10 15:45S 27°24' E 153°09'2 7.5
2017-Dec-10 15:30S 27°23' E 153°10'5 7.2
2017-Dec-10 14:48S 27°18' E 153°13'2 6.9
2017-Dec-10 14:30S 27°17' E 153°14'3 6.8
2017-Dec-10 14:00S 27°14' E 153°16'6 6.9
2017-Dec-10 13:09S 27°09' E 153°20'2 7.0
2017-Dec-10 12:52S 27°07' E 153°19'4 0.7
2017-Dec-10 07:26S 27°04' E 153°17'4 8.3
2017-Dec-10 07:00S 27°07' E 153°17'4 8.9
2017-Dec-10 06:30S 27°11' E 153°14'4 8.1
2017-Dec-10 06:00S 27°14' E 153°12'4 8.4
2017-Dec-10 05:30S 27°19' E 153°12'5 0.4
2017-Dec-09 14:27S 27°24' E 153°09'3 7.0
2017-Dec-09 14:00S 27°21' E 153°11'4 7.0
2017-Dec-09 13:29S 27°18' E 153°13'3 6.8
2017-Dec-09 13:00S 27°15' E 153°15'12 1.8
2017-Dec-09 06:38S 27°03' E 153°17'3 9.1
2017-Dec-09 06:21S 27°06' E 153°18'3 9.5
2017-Dec-09 06:00S 27°09' E 153°16'4 8.8
2017-Dec-09 05:30S 27°12' E 153°13'4 8.5
2017-Dec-09 05:00S 27°16' E 153°12'9 0.6
2017-Dec-08 13:16S 27°25' E 153°09'2 7.3
2017-Dec-08 12:59S 27°23' E 153°10'3 7.2
2017-Dec-08 12:30S 27°20' E 153°12'4 7.1
2017-Dec-08 12:00S 27°17' E 153°14'4 6.7
2017-Dec-08 11:29S 27°14' E 153°16'3 6.4
2017-Dec-08 11:00S 27°11' E 153°18'3 6.5
2017-Dec-08 10:30S 27°08' E 153°20'4 6.9
2017-Dec-08 09:57S 27°05' E 153°18'2 3.8
2017-Dec-08 09:25S 27°03' E 153°17'0 0.2
2017-Dec-08 09:00S 27°03' E 153°17'0 0.1
2017-Dec-08 08:30S 27°03' E 153°17'0 0.0
2017-Dec-08 07:47S 27°03' E 153°17'0 0.0
2017-Dec-08 06:28S 27°03' E 153°17'0 0.0
2017-Dec-08 05:33S 27°03' E 153°17'0 0.3
2017-Dec-08 05:07S 27°03' E 153°17'1 8.7
2017-Dec-08 05:00S 27°04' E 153°17'4 8.7
2017-Dec-08 04:30S 27°08' E 153°16'4 8.9
2017-Dec-08 04:00S 27°11' E 153°13'4 8.6
2017-Dec-08 03:30S 27°16' E 153°12'8 3.8
2017-Dec-08 01:21S 27°23' E 153°09'0 0.0
2017-Dec-08 01:00S 27°23' E 153°09'0 0.0
2017-Dec-08 00:14S 27°23' E 153°09'0 0.0
2017-Dec-07 23:37S 27°23' E 153°09'0 0.0
2017-Dec-07 23:24S 27°23' E 153°09'0 0.0
2017-Dec-07 22:53S 27°23' E 153°09'0 0.0
2017-Dec-07 22:30S 27°23' E 153°09'3 0.7
2017-Dec-07 18:46S 27°26' E 153°08'0 0.0
2017-Dec-07 18:30S 27°26' E 153°08'0 0.0
2017-Dec-07 17:58S 27°26' E 153°08'0 0.0
2017-Dec-07 17:30S 27°26' E 153°08'0 0.0
2017-Dec-07 17:00S 27°26' E 153°08'1 0.3
2017-Dec-07 11:59S 27°24' E 153°09'4 7.1
2017-Dec-07 11:26S 27°21' E 153°11'3 7.0
2017-Dec-07 10:59S 27°18' E 153°13'3 6.8
2017-Dec-07 10:30S 27°16' E 153°15'3 6.8
2017-Dec-07 10:00S 27°13' E 153°17'3 6.6
2017-Dec-07 09:30S 27°10' E 153°19'3 5.8
2017-Dec-07 09:00S 27°07' E 153°19'3 6.1
2017-Dec-07 08:29S 27°04' E 153°18'2 2.3
2017-Dec-07 07:48S 27°03' E 153°17'0 0.0
2017-Dec-07 06:21S 27°03' E 153°17'0 0.0
2017-Dec-07 05:57S 27°03' E 153°17'0 0.0
2017-Dec-07 05:05S 27°03' E 153°17'0 2.5
2017-Dec-07 04:56S 27°03' E 153°17'4 9.0
2017-Dec-07 04:30S 27°07' E 153°17'5 9.4
2017-Dec-07 04:00S 27°11' E 153°14'4 8.3
2017-Dec-07 03:30S 27°15' E 153°12'4 8.4
2017-Dec-07 03:00S 27°19' E 153°12'4 8.0
2017-Dec-07 02:30S 27°22' E 153°10'3 0.6
2017-Dec-06 20:39S 27°26' E 153°08'  
Track history (hours):
 
Tides and Currents Weather Stations Pressure Air Temp Water Temp Dewpoint Dewpoint Depression Visibility Wind Speed Wind Dir Waves Ship Positions

John Oxley 2

Last reported at 2017-Dec-16 09:16 UTC. Time now 2017-Dec-16 11:22 UTC.
Position S 27°24' E 153°09'.

Length 79 m.

MMSI: 503774000.

Date/timePositionNaut miles runAvg speedWind from/ knotsBaromVisibWave heightAir tempDewpointWater temp
2017-Dec-16 09:16S 27°24' E 153°09'2 7.6
2017-Dec-16 09:00S 27°22' E 153°10'5 7.3
2017-Dec-16 08:20S 27°18' E 153°13'2 7.2
2017-Dec-16 08:00S 27°16' E 153°13'4 7.3
2017-Dec-16 07:30S 27°12' E 153°13'4 7.6
2017-Dec-16 06:57S 27°09' E 153°16'2 0.3
2017-Dec-16 00:11S 27°07' E 153°17'2 9.1
2017-Dec-16 00:00S 27°08' E 153°16'4 8.7
2017-Dec-15 23:30S 27°12' E 153°13'4 8.2
2017-Dec-15 23:00S 27°16' E 153°12'4 7.9
2017-Dec-15 22:30S 27°20' E 153°12'5 0.4
2017-Dec-15 07:52S 27°24' E 153°09'1 1.8
2017-Dec-15 07:11S 27°23' E 153°09'6 6.9
2017-Dec-15 06:18S 27°18' E 153°13'2 7.1
2017-Dec-15 05:59S 27°15' E 153°13'3 7.1
2017-Dec-15 05:30S 27°12' E 153°13'4 0.2
2017-Dec-14 05:23S 27°16' E 153°13'8 1.0
2017-Dec-13 21:51S 27°09' E 153°16'4 8.3
2017-Dec-13 21:19S 27°12' E 153°13'3 8.4
2017-Dec-13 20:59S 27°15' E 153°12'8 7.8
2017-Dec-13 19:55S 27°23' E 153°10'1 0.1
2017-Dec-12 17:27S 27°24' E 153°09'7 7.1
2017-Dec-12 16:27S 27°18' E 153°13'3 6.8
2017-Dec-12 16:00S 27°15' E 153°15'3 6.9
2017-Dec-12 15:30S 27°13' E 153°17'7 6.2
2017-Dec-12 14:18S 27°05' E 153°18'3 0.5
2017-Dec-12 09:02S 27°03' E 153°17'0 2.7
2017-Dec-12 09:00S 27°03' E 153°16'4 7.6
2017-Dec-12 08:31S 27°07' E 153°17'4 8.7
2017-Dec-12 08:00S 27°10' E 153°14'4 7.8
2017-Dec-12 07:30S 27°14' E 153°13'4 8.3
2017-Dec-12 06:59S 27°18' E 153°12'1 0.1
2017-Dec-11 20:23S 27°18' E 153°12'2 6.5
2017-Dec-11 20:00S 27°15' E 153°13'3 6.5
2017-Dec-11 19:30S 27°12' E 153°13'3 6.4
2017-Dec-11 19:00S 27°10' E 153°15'3 6.8
2017-Dec-11 18:30S 27°07' E 153°17'4 0.8
2017-Dec-11 13:49S 27°03' E 153°17'2 6.0
2017-Dec-11 13:30S 27°05' E 153°18'4 8.2
2017-Dec-11 13:00S 27°09' E 153°20'4 8.6
2017-Dec-11 12:30S 27°12' E 153°18'4 8.7
2017-Dec-11 12:00S 27°16' E 153°15'4 8.6
2017-Dec-11 11:30S 27°20' E 153°12'5 9.3
2017-Dec-11 11:00S 27°24' E 153°09'1 0.0
2017-Dec-10 15:45S 27°24' E 153°09'2 7.5
2017-Dec-10 15:30S 27°23' E 153°10'5 7.2
2017-Dec-10 14:48S 27°18' E 153°13'2 6.9
2017-Dec-10 14:30S 27°17' E 153°14'3 6.8
2017-Dec-10 14:00S 27°14' E 153°16'6 6.9
2017-Dec-10 13:09S 27°09' E 153°20'2 7.0
2017-Dec-10 12:52S 27°07' E 153°19'4 0.7
2017-Dec-10 07:26S 27°04' E 153°17'4 8.3
2017-Dec-10 07:00S 27°07' E 153°17'4 8.9
2017-Dec-10 06:30S 27°11' E 153°14'4 8.1
2017-Dec-10 06:00S 27°14' E 153°12'4 8.4
2017-Dec-10 05:30S 27°19' E 153°12'5 0.4
2017-Dec-09 14:27S 27°24' E 153°09'3 7.0
2017-Dec-09 14:00S 27°21' E 153°11'4 7.0
2017-Dec-09 13:29S 27°18' E 153°13'3 6.8
2017-Dec-09 13:00S 27°15' E 153°15'12 1.8
2017-Dec-09 06:38S 27°03' E 153°17'3 9.1
2017-Dec-09 06:21S 27°06' E 153°18'3 9.5
2017-Dec-09 06:00S 27°09' E 153°16'4 8.8
2017-Dec-09 05:30S 27°12' E 153°13'4 8.5
2017-Dec-09 05:00S 27°16' E 153°12'9 0.6
2017-Dec-08 13:16S 27°25' E 153°09'2 7.3
2017-Dec-08 12:59S 27°23' E 153°10'3 7.2
2017-Dec-08 12:30S 27°20' E 153°12'4 7.1
2017-Dec-08 12:00S 27°17' E 153°14'4 6.7
2017-Dec-08 11:29S 27°14' E 153°16'3 6.4
2017-Dec-08 11:00S 27°11' E 153°18'3 6.5
2017-Dec-08 10:30S 27°08' E 153°20'4 6.9
2017-Dec-08 09:57S 27°05' E 153°18'2 3.8
2017-Dec-08 09:25S 27°03' E 153°17'0 0.2
2017-Dec-08 09:00S 27°03' E 153°17'0 0.1
2017-Dec-08 08:30S 27°03' E 153°17'0 0.0
2017-Dec-08 07:47S 27°03' E 153°17'0 0.0
2017-Dec-08 06:28S 27°03' E 153°17'0 0.0
2017-Dec-08 05:33S 27°03' E 153°17'0 0.3
2017-Dec-08 05:07S 27°03' E 153°17'1 8.7
2017-Dec-08 05:00S 27°04' E 153°17'4 8.7
2017-Dec-08 04:30S 27°08' E 153°16'4 8.9
2017-Dec-08 04:00S 27°11' E 153°13'4 8.6
2017-Dec-08 03:30S 27°16' E 153°12'8 3.8
2017-Dec-08 01:21S 27°23' E 153°09'0 0.0
2017-Dec-08 01:00S 27°23' E 153°09'0 0.0
2017-Dec-08 00:14S 27°23' E 153°09'0 0.0
2017-Dec-07 23:37S 27°23' E 153°09'0 0.0
2017-Dec-07 23:24S 27°23' E 153°09'0 0.0
2017-Dec-07 22:53S 27°23' E 153°09'0 0.0
2017-Dec-07 22:30S 27°23' E 153°09'3 0.7
2017-Dec-07 18:46S 27°26' E 153°08'0 0.0
2017-Dec-07 18:30S 27°26' E 153°08'0 0.0
2017-Dec-07 17:58S 27°26' E 153°08'0 0.0
2017-Dec-07 17:30S 27°26' E 153°08'0 0.0
2017-Dec-07 17:00S 27°26' E 153°08'1 0.3
2017-Dec-07 11:59S 27°24' E 153°09'4 7.1
2017-Dec-07 11:26S 27°21' E 153°11'3 7.0
2017-Dec-07 10:59S 27°18' E 153°13'3 6.8
2017-Dec-07 10:30S 27°16' E 153°15'3 6.8
2017-Dec-07 10:00S 27°13' E 153°17'3 6.6
2017-Dec-07 09:30S 27°10' E 153°19'3 5.8
2017-Dec-07 09:00S 27°07' E 153°19'3 6.1
2017-Dec-07 08:29S 27°04' E 153°18'2 2.3
2017-Dec-07 07:48S 27°03' E 153°17'0 0.0
2017-Dec-07 06:21S 27°03' E 153°17'0 0.0
2017-Dec-07 05:57S 27°03' E 153°17'0 0.0
2017-Dec-07 05:05S 27°03' E 153°17'0 2.5
2017-Dec-07 04:56S 27°03' E 153°17'4 9.0
2017-Dec-07 04:30S 27°07' E 153°17'5 9.4
2017-Dec-07 04:00S 27°11' E 153°14'4 8.3
2017-Dec-07 03:30S 27°15' E 153°12'4 8.4
2017-Dec-07 03:00S 27°19' E 153°12'4 8.0
2017-Dec-07 02:30S 27°22' E 153°10'3 0.6
2017-Dec-06 20:39S 27°26' E 153°08'  

Dump ship's entire track history